Airfield :
LOGIN :

Register | Disclaimer

   EN    FR    IT 

 










Legend :    VFR   Marginal VFR   IFR   Intensive IFR   Very Intensive IFR
Visi :
Ceiling :
>= 8 km
>= 3000ft
5 to 8 km
1000 to 3000 ft
1500m to 5 km
500 to 1000 ft
800 to 1500m
200 to 500 ft
< 800m
< 200 ft
Symbols :   Thunderstorms  Fog  Heavy snow  Heavy precipitations  Wind > 20 kt
SIGMETs :     Misc.  Thunderstorms  Icing  Turbulence  Mountain Waves  Volcanic Ashes






- Airport Elevation : 788 ft
- IATA code : DCM


LFCK - Castres-Mazamet

CURRENT METAR :
  • 192230Z AUTO 10004KT CAVOK 01/01 Q1015

EXPIRED METARs :
  • 192200Z AUTO 11004KT 080V140 8000 NSC 00/M00 Q1015 BECMG 2000 BR
  • 192130Z AUTO 11003KT CAVOK 02/02 Q1016 BECMG 2000 BR
  • 192100Z AUTO 10002KT 7000 NSC 02/02 Q1016 BECMG 2000 BR
  • 192030Z AUTO VRB03KT 6000 NSC 01/01 Q1016 BECMG 2000 BR
  • 192000Z AUTO 11003KT 8000 NSC 02/01 Q1016 BECMG 2000 BR

TAF TAF LFCK
Valid from the 19 at 18:00 until the 20 at 03:00 UTC


191700Z 1918/2003 14004KT 9999 BKN018
BECMG 1918/1920 2000 BR NSC



MET'MAP, your aeronautical weather chart ! - Copyright ORBIFLY December 2007 - Disclaimer

ORBIFLY MET'MAP TEAM :

Programming & Development : Alexandra Zaïnal
Concept & Development : Baudouin d'Aumeries
Co-Development & Prog : Marc-Olivier Méhu
Technical & hardware support : Manuel Goepfert

Contact : metmap@orbifly.com




SOURCES & CREDITS :

   NOAA